sensor_id;sensor_type;location;lat;lon;timestamp;temperature;humidity
4052;DHT22;2040;50.924;11.604;2024-02-21T00:00:46;6.60;99.90
4052;DHT22;2040;50.924;11.604;2024-02-21T00:03:11;6.60;99.90
4052;DHT22;2040;50.924;11.604;2024-02-21T00:05:37;6.70;99.90
4052;DHT22;2040;50.924;11.604;2024-02-21T00:08:03;6.70;99.90
4052;DHT22;2040;50.924;11.604;2024-02-21T00:10:28;6.70;99.90
4052;DHT22;2040;50.924;11.604;2024-02-21T00:12:54;6.80;99.90
4052;DHT22;2040;50.924;11.604;2024-02-21T00:15:20;6.80;99.90
4052;DHT22;2040;50.924;11.604;2024-02-21T00:17:46;6.90;99.90
4052;DHT22;2040;50.924;11.604;2024-02-21T00:20:13;6.80;99.90
4052;DHT22;2040;50.924;11.604;2024-02-21T00:22:38;6.80;99.90
4052;DHT22;2040;50.924;11.604;2024-02-21T00:25:04;6.90;99.90
4052;DHT22;2040;50.924;11.604;2024-02-21T00:27:30;6.90;99.90
4052;DHT22;2040;50.924;11.604;2024-02-21T00:29:56;6.80;99.90
4052;DHT22;2040;50.924;11.604;2024-02-21T00:32:22;6.90;99.90
4052;DHT22;2040;50.924;11.604;2024-02-21T00:34:47;6.90;99.90
4052;DHT22;2040;50.924;11.604;2024-02-21T00:37:13;6.90;99.90
4052;DHT22;2040;50.924;11.604;2024-02-21T00:39:38;6.80;99.90
4052;DHT22;2040;50.924;11.604;2024-02-21T00:42:04;6.80;99.90
4052;DHT22;2040;50.924;11.604;2024-02-21T00:44:30;6.80;99.90
4052;DHT22;2040;50.924;11.604;2024-02-21T00:46:55;6.80;99.90
4052;DHT22;2040;50.924;11.604;2024-02-21T00:49:21;6.70;99.90
4052;DHT22;2040;50.924;11.604;2024-02-21T00:51:47;6.70;99.90
4052;DHT22;2040;50.924;11.604;2024-02-21T00:54:12;6.70;99.90
4052;DHT22;2040;50.924;11.604;2024-02-21T00:56:38;6.70;99.90
4052;DHT22;2040;50.924;11.604;2024-02-21T00:59:04;6.70;99.90
4052;DHT22;2040;50.924;11.604;2024-02-21T01:01:29;6.70;99.90
4052;DHT22;2040;50.924;11.604;2024-02-21T01:03:55;6.70;99.90
4052;DHT22;2040;50.924;11.604;2024-02-21T01:06:20;6.70;99.90
4052;DHT22;2040;50.924;11.604;2024-02-21T01:08:47;6.70;99.90
4052;DHT22;2040;50.924;11.604;2024-02-21T01:11:14;6.70;99.90
4052;DHT22;2040;50.924;11.604;2024-02-21T01:13:39;6.70;99.90
4052;DHT22;2040;50.924;11.604;2024-02-21T01:16:05;6.70;99.90
4052;DHT22;2040;50.924;11.604;2024-02-21T01:18:33;6.70;99.90
4052;DHT22;2040;50.924;11.604;2024-02-21T01:20:58;6.70;99.90
4052;DHT22;2040;50.924;11.604;2024-02-21T01:23:24;6.80;99.90
4052;DHT22;2040;50.924;11.604;2024-02-21T01:25:50;6.70;99.90
4052;DHT22;2040;50.924;11.604;2024-02-21T01:28:16;6.70;99.90
4052;DHT22;2040;50.924;11.604;2024-02-21T01:30:41;6.70;99.90
4052;DHT22;2040;50.924;11.604;2024-02-21T01:33:07;6.70;99.90
4052;DHT22;2040;50.924;11.604;2024-02-21T01:35:33;6.70;99.90
4052;DHT22;2040;50.924;11.604;2024-02-21T01:37:59;6.60;99.90
4052;DHT22;2040;50.924;11.604;2024-02-21T01:40:24;6.70;99.90
4052;DHT22;2040;50.924;11.604;2024-02-21T01:42:50;6.70;99.90
4052;DHT22;2040;50.924;11.604;2024-02-21T01:45:15;6.80;99.90
4052;DHT22;2040;50.924;11.604;2024-02-21T01:47:41;6.80;99.90
4052;DHT22;2040;50.924;11.604;2024-02-21T01:50:07;6.70;99.90
4052;DHT22;2040;50.924;11.604;2024-02-21T01:52:34;6.70;99.90
4052;DHT22;2040;50.924;11.604;2024-02-21T01:55:01;6.70;99.90
4052;DHT22;2040;50.924;11.604;2024-02-21T01:57:27;6.70;99.90
4052;DHT22;2040;50.924;11.604;2024-02-21T01:59:54;6.70;99.90
4052;DHT22;2040;50.924;11.604;2024-02-21T02:02:19;6.70;99.90
4052;DHT22;2040;50.924;11.604;2024-02-21T02:04:46;6.70;99.90
4052;DHT22;2040;50.924;11.604;2024-02-21T02:07:11;6.80;99.90
4052;DHT22;2040;50.924;11.604;2024-02-21T02:09:37;6.70;99.90
4052;DHT22;2040;50.924;11.604;2024-02-21T02:12:03;6.70;99.90
4052;DHT22;2040;50.924;11.604;2024-02-21T02:14:28;6.70;99.90
4052;DHT22;2040;50.924;11.604;2024-02-21T02:16:54;6.70;99.90
4052;DHT22;2040;50.924;11.604;2024-02-21T02:19:19;6.70;99.90
4052;DHT22;2040;50.924;11.604;2024-02-21T02:21:51;6.60;99.90
4052;DHT22;2040;50.924;11.604;2024-02-21T02:24:21;6.60;99.90
4052;DHT22;2040;50.924;11.604;2024-02-21T02:26:47;6.60;99.90
4052;DHT22;2040;50.924;11.604;2024-02-21T02:29:13;6.50;99.90
4052;DHT22;2040;50.924;11.604;2024-02-21T02:31:38;6.50;99.90
4052;DHT22;2040;50.924;11.604;2024-02-21T02:34:04;6.50;99.90
4052;DHT22;2040;50.924;11.604;2024-02-21T02:36:32;6.50;99.90
4052;DHT22;2040;50.924;11.604;2024-02-21T02:38:58;6.50;99.90
4052;DHT22;2040;50.924;11.604;2024-02-21T02:41:24;6.50;99.90
4052;DHT22;2040;50.924;11.604;2024-02-21T02:43:49;6.40;99.90
4052;DHT22;2040;50.924;11.604;2024-02-21T02:46:15;6.40;99.90
4052;DHT22;2040;50.924;11.604;2024-02-21T02:48:40;6.40;99.90
4052;DHT22;2040;50.924;11.604;2024-02-21T02:51:06;6.40;99.90
4052;DHT22;2040;50.924;11.604;2024-02-21T02:53:31;6.40;99.90
4052;DHT22;2040;50.924;11.604;2024-02-21T02:55:57;6.40;99.90
4052;DHT22;2040;50.924;11.604;2024-02-21T02:58:23;6.40;99.90
4052;DHT22;2040;50.924;11.604;2024-02-21T03:00:48;6.40;99.90
4052;DHT22;2040;50.924;11.604;2024-02-21T03:03:14;6.40;99.90
4052;DHT22;2040;50.924;11.604;2024-02-21T03:05:39;6.40;99.90
4052;DHT22;2040;50.924;11.604;2024-02-21T03:08:05;6.40;99.90
4052;DHT22;2040;50.924;11.604;2024-02-21T03:10:35;6.30;99.90
4052;DHT22;2040;50.924;11.604;2024-02-21T03:13:01;6.30;99.90
4052;DHT22;2040;50.924;11.604;2024-02-21T03:15:27;6.30;99.90
4052;DHT22;2040;50.924;11.604;2024-02-21T03:17:52;6.20;99.90
4052;DHT22;2040;50.924;11.604;2024-02-21T03:20:18;6.20;99.90
4052;DHT22;2040;50.924;11.604;2024-02-21T03:22:45;6.20;99.90
4052;DHT22;2040;50.924;11.604;2024-02-21T03:25:10;6.20;99.90
4052;DHT22;2040;50.924;11.604;2024-02-21T03:27:38;6.20;99.90
4052;DHT22;2040;50.924;11.604;2024-02-21T03:30:04;6.10;99.90
4052;DHT22;2040;50.924;11.604;2024-02-21T03:32:29;6.20;99.90
4052;DHT22;2040;50.924;11.604;2024-02-21T03:34:55;6.20;99.90
4052;DHT22;2040;50.924;11.604;2024-02-21T03:37:21;6.10;99.90
4052;DHT22;2040;50.924;11.604;2024-02-21T03:39:47;6.20;99.90
4052;DHT22;2040;50.924;11.604;2024-02-21T03:42:12;6.20;99.90
4052;DHT22;2040;50.924;11.604;2024-02-21T03:44:38;6.20;99.90
4052;DHT22;2040;50.924;11.604;2024-02-21T03:47:04;6.20;99.90
4052;DHT22;2040;50.924;11.604;2024-02-21T03:49:29;6.20;99.90
4052;DHT22;2040;50.924;11.604;2024-02-21T03:51:55;6.30;99.90
4052;DHT22;2040;50.924;11.604;2024-02-21T03:54:21;6.30;99.90
4052;DHT22;2040;50.924;11.604;2024-02-21T03:56:47;6.30;99.90
4052;DHT22;2040;50.924;11.604;2024-02-21T03:59:15;6.30;99.90
4052;DHT22;2040;50.924;11.604;2024-02-21T04:01:41;6.40;99.90
4052;DHT22;2040;50.924;11.604;2024-02-21T04:04:07;6.40;99.90
4052;DHT22;2040;50.924;11.604;2024-02-21T04:06:33;6.40;99.90
4052;DHT22;2040;50.924;11.604;2024-02-21T04:08:58;6.40;99.90
4052;DHT22;2040;50.924;11.604;2024-02-21T04:11:24;6.40;99.90
4052;DHT22;2040;50.924;11.604;2024-02-21T04:13:49;6.40;99.90
4052;DHT22;2040;50.924;11.604;2024-02-21T04:16:16;6.40;99.90
4052;DHT22;2040;50.924;11.604;2024-02-21T04:18:42;6.40;99.90
4052;DHT22;2040;50.924;11.604;2024-02-21T04:21:09;6.40;99.90
4052;DHT22;2040;50.924;11.604;2024-02-21T04:23:34;6.40;99.90
4052;DHT22;2040;50.924;11.604;2024-02-21T04:26:00;6.40;99.90
4052;DHT22;2040;50.924;11.604;2024-02-21T04:28:25;6.50;99.90
4052;DHT22;2040;50.924;11.604;2024-02-21T04:30:51;6.40;99.90
4052;DHT22;2040;50.924;11.604;2024-02-21T04:33:17;6.40;99.90
4052;DHT22;2040;50.924;11.604;2024-02-21T04:35:42;6.40;99.90
4052;DHT22;2040;50.924;11.604;2024-02-21T04:38:08;6.30;99.90
4052;DHT22;2040;50.924;11.604;2024-02-21T04:40:33;6.30;99.90
4052;DHT22;2040;50.924;11.604;2024-02-21T04:42:59;6.30;99.90
4052;DHT22;2040;50.924;11.604;2024-02-21T04:45:24;6.30;99.90
4052;DHT22;2040;50.924;11.604;2024-02-21T04:47:50;6.40;99.90
4052;DHT22;2040;50.924;11.604;2024-02-21T04:50:15;6.30;99.90
4052;DHT22;2040;50.924;11.604;2024-02-21T04:52:41;6.30;99.90
4052;DHT22;2040;50.924;11.604;2024-02-21T04:55:07;6.40;99.90
4052;DHT22;2040;50.924;11.604;2024-02-21T04:57:33;6.40;99.90
4052;DHT22;2040;50.924;11.604;2024-02-21T04:59:58;6.40;99.90
4052;DHT22;2040;50.924;11.604;2024-02-21T05:02:24;6.30;99.90
4052;DHT22;2040;50.924;11.604;2024-02-21T05:04:50;6.40;99.90
4052;DHT22;2040;50.924;11.604;2024-02-21T05:07:16;6.50;99.90
4052;DHT22;2040;50.924;11.604;2024-02-21T05:09:45;6.50;99.90
4052;DHT22;2040;50.924;11.604;2024-02-21T05:12:10;6.40;99.90
4052;DHT22;2040;50.924;11.604;2024-02-21T05:14:36;6.50;99.90
4052;DHT22;2040;50.924;11.604;2024-02-21T05:17:01;6.40;99.90
4052;DHT22;2040;50.924;11.604;2024-02-21T05:19:27;6.40;99.90
4052;DHT22;2040;50.924;11.604;2024-02-21T05:21:52;6.40;99.90
4052;DHT22;2040;50.924;11.604;2024-02-21T05:24:18;6.30;99.90
4052;DHT22;2040;50.924;11.604;2024-02-21T05:26:43;6.30;99.90
4052;DHT22;2040;50.924;11.604;2024-02-21T05:29:09;6.20;99.90
4052;DHT22;2040;50.924;11.604;2024-02-21T05:34:19;6.20;99.90
4052;DHT22;2040;50.924;11.604;2024-02-21T05:36:46;6.20;99.90
4052;DHT22;2040;50.924;11.604;2024-02-21T05:39:12;6.20;99.90
4052;DHT22;2040;50.924;11.604;2024-02-21T05:41:38;6.20;99.90
4052;DHT22;2040;50.924;11.604;2024-02-21T05:44:03;6.30;99.90
4052;DHT22;2040;50.924;11.604;2024-02-21T05:46:29;6.30;99.90
4052;DHT22;2040;50.924;11.604;2024-02-21T05:48:55;6.30;99.90
4052;DHT22;2040;50.924;11.604;2024-02-21T05:51:20;6.30;99.90
4052;DHT22;2040;50.924;11.604;2024-02-21T05:53:46;6.20;99.90
4052;DHT22;2040;50.924;11.604;2024-02-21T05:56:12;6.10;99.90
4052;DHT22;2040;50.924;11.604;2024-02-21T05:58:38;6.10;99.90
4052;DHT22;2040;50.924;11.604;2024-02-21T06:01:03;6.00;99.90
4052;DHT22;2040;50.924;11.604;2024-02-21T06:03:30;6.00;99.90
4052;DHT22;2040;50.924;11.604;2024-02-21T06:05:56;6.00;99.90
4052;DHT22;2040;50.924;11.604;2024-02-21T06:08:21;6.00;99.90
4052;DHT22;2040;50.924;11.604;2024-02-21T06:10:47;6.00;99.90
4052;DHT22;2040;50.924;11.604;2024-02-21T06:13:14;6.00;99.90
4052;DHT22;2040;50.924;11.604;2024-02-21T06:15:39;6.00;99.90
4052;DHT22;2040;50.924;11.604;2024-02-21T06:18:05;6.00;99.90
4052;DHT22;2040;50.924;11.604;2024-02-21T06:20:31;6.00;99.90
4052;DHT22;2040;50.924;11.604;2024-02-21T06:22:56;6.10;99.90
4052;DHT22;2040;50.924;11.604;2024-02-21T06:25:22;6.20;99.90
4052;DHT22;2040;50.924;11.604;2024-02-21T06:27:47;6.20;99.90
4052;DHT22;2040;50.924;11.604;2024-02-21T06:30:13;6.20;99.90
4052;DHT22;2040;50.924;11.604;2024-02-21T06:32:39;6.20;99.90
4052;DHT22;2040;50.924;11.604;2024-02-21T06:35:05;6.30;99.90
4052;DHT22;2040;50.924;11.604;2024-02-21T06:37:30;6.30;99.90
4052;DHT22;2040;50.924;11.604;2024-02-21T06:39:57;6.40;99.90
4052;DHT22;2040;50.924;11.604;2024-02-21T06:42:25;6.40;99.90
4052;DHT22;2040;50.924;11.604;2024-02-21T06:44:51;6.40;99.90
4052;DHT22;2040;50.924;11.604;2024-02-21T06:47:16;6.40;99.90
4052;DHT22;2040;50.924;11.604;2024-02-21T06:49:42;6.40;99.90
4052;DHT22;2040;50.924;11.604;2024-02-21T06:52:07;6.50;99.90
4052;DHT22;2040;50.924;11.604;2024-02-21T06:54:33;6.50;99.90
4052;DHT22;2040;50.924;11.604;2024-02-21T06:56:58;6.50;99.90
4052;DHT22;2040;50.924;11.604;2024-02-21T06:59:24;6.50;99.90
4052;DHT22;2040;50.924;11.604;2024-02-21T07:01:52;6.50;99.90
4052;DHT22;2040;50.924;11.604;2024-02-21T07:04:18;6.50;99.90
4052;DHT22;2040;50.924;11.604;2024-02-21T07:06:44;6.60;99.90
4052;DHT22;2040;50.924;11.604;2024-02-21T07:09:09;6.60;99.90
4052;DHT22;2040;50.924;11.604;2024-02-21T07:11:35;6.60;99.90
4052;DHT22;2040;50.924;11.604;2024-02-21T07:14:00;6.60;99.90
4052;DHT22;2040;50.924;11.604;2024-02-21T07:16:26;6.60;99.90
4052;DHT22;2040;50.924;11.604;2024-02-21T07:18:52;6.60;99.90
4052;DHT22;2040;50.924;11.604;2024-02-21T07:21:17;6.60;99.90
4052;DHT22;2040;50.924;11.604;2024-02-21T07:23:43;6.60;99.90
4052;DHT22;2040;50.924;11.604;2024-02-21T07:26:08;6.60;99.90
4052;DHT22;2040;50.924;11.604;2024-02-21T07:28:34;6.70;99.90
4052;DHT22;2040;50.924;11.604;2024-02-21T07:31:00;6.70;99.90
4052;DHT22;2040;50.924;11.604;2024-02-21T07:33:25;6.70;99.90
4052;DHT22;2040;50.924;11.604;2024-02-21T07:35:51;6.80;99.90
4052;DHT22;2040;50.924;11.604;2024-02-21T07:38:19;6.80;99.90
4052;DHT22;2040;50.924;11.604;2024-02-21T07:40:45;6.80;99.90
4052;DHT22;2040;50.924;11.604;2024-02-21T07:43:12;6.80;99.90
4052;DHT22;2040;50.924;11.604;2024-02-21T07:45:37;6.80;99.90
4052;DHT22;2040;50.924;11.604;2024-02-21T07:48:05;6.80;99.90
4052;DHT22;2040;50.924;11.604;2024-02-21T07:50:31;6.80;99.90
4052;DHT22;2040;50.924;11.604;2024-02-21T07:52:57;6.80;99.90
4052;DHT22;2040;50.924;11.604;2024-02-21T07:55:22;6.80;99.90
4052;DHT22;2040;50.924;11.604;2024-02-21T07:57:48;6.80;99.90
4052;DHT22;2040;50.924;11.604;2024-02-21T08:00:15;6.70;99.90
4052;DHT22;2040;50.924;11.604;2024-02-21T08:02:45;6.80;99.90
4052;DHT22;2040;50.924;11.604;2024-02-21T08:05:11;6.80;99.90
4052;DHT22;2040;50.924;11.604;2024-02-21T08:07:38;6.80;99.90
4052;DHT22;2040;50.924;11.604;2024-02-21T08:10:04;6.90;99.90
4052;DHT22;2040;50.924;11.604;2024-02-21T08:12:30;6.90;99.90
4052;DHT22;2040;50.924;11.604;2024-02-21T08:14:55;6.90;99.90
4052;DHT22;2040;50.924;11.604;2024-02-21T08:17:21;7.00;99.90
4052;DHT22;2040;50.924;11.604;2024-02-21T08:19:46;7.00;99.90
4052;DHT22;2040;50.924;11.604;2024-02-21T08:22:14;7.00;99.90
4052;DHT22;2040;50.924;11.604;2024-02-21T08:24:40;7.10;99.90
4052;DHT22;2040;50.924;11.604;2024-02-21T08:27:05;7.10;99.90
4052;DHT22;2040;50.924;11.604;2024-02-21T08:29:31;7.10;99.90
4052;DHT22;2040;50.924;11.604;2024-02-21T08:31:56;7.10;99.90
4052;DHT22;2040;50.924;11.604;2024-02-21T08:34:22;7.10;99.90
4052;DHT22;2040;50.924;11.604;2024-02-21T08:36:48;7.10;99.90
4052;DHT22;2040;50.924;11.604;2024-02-21T08:39:13;7.20;99.90
4052;DHT22;2040;50.924;11.604;2024-02-21T08:41:42;7.20;99.90
4052;DHT22;2040;50.924;11.604;2024-02-21T08:44:08;7.20;99.90
4052;DHT22;2040;50.924;11.604;2024-02-21T08:46:33;7.30;99.90
4052;DHT22;2040;50.924;11.604;2024-02-21T08:48:59;7.40;99.90
4052;DHT22;2040;50.924;11.604;2024-02-21T08:51:25;7.40;99.90
4052;DHT22;2040;50.924;11.604;2024-02-21T08:53:50;7.40;99.90
4052;DHT22;2040;50.924;11.604;2024-02-21T08:56:17;7.50;99.90
4052;DHT22;2040;50.924;11.604;2024-02-21T08:58:43;7.60;99.90
4052;DHT22;2040;50.924;11.604;2024-02-21T09:01:09;7.50;99.90
4052;DHT22;2040;50.924;11.604;2024-02-21T09:03:38;7.60;99.90
4052;DHT22;2040;50.924;11.604;2024-02-21T09:06:05;7.60;99.90
4052;DHT22;2040;50.924;11.604;2024-02-21T09:08:31;7.70;99.90
4052;DHT22;2040;50.924;11.604;2024-02-21T09:10:57;7.70;99.90
4052;DHT22;2040;50.924;11.604;2024-02-21T09:13:22;7.70;99.90
4052;DHT22;2040;50.924;11.604;2024-02-21T09:15:49;7.80;99.90
4052;DHT22;2040;50.924;11.604;2024-02-21T09:18:17;7.80;99.90
4052;DHT22;2040;50.924;11.604;2024-02-21T09:20:43;7.80;99.90
4052;DHT22;2040;50.924;11.604;2024-02-21T09:23:09;7.80;99.90
4052;DHT22;2040;50.924;11.604;2024-02-21T09:25:35;7.80;99.90
4052;DHT22;2040;50.924;11.604;2024-02-21T09:28:01;7.90;99.90
4052;DHT22;2040;50.924;11.604;2024-02-21T09:30:27;8.00;99.90
4052;DHT22;2040;50.924;11.604;2024-02-21T09:32:53;8.00;99.90
4052;DHT22;2040;50.924;11.604;2024-02-21T09:35:18;8.00;99.90
4052;DHT22;2040;50.924;11.604;2024-02-21T09:37:44;8.00;99.90
4052;DHT22;2040;50.924;11.604;2024-02-21T09:40:10;8.00;99.90
4052;DHT22;2040;50.924;11.604;2024-02-21T09:42:40;8.10;99.90
4052;DHT22;2040;50.924;11.604;2024-02-21T09:45:09;8.10;99.90
4052;DHT22;2040;50.924;11.604;2024-02-21T09:50:32;8.30;99.90
4052;DHT22;2040;50.924;11.604;2024-02-21T09:53:00;8.40;99.90
4052;DHT22;2040;50.924;11.604;2024-02-21T09:55:29;8.40;99.90
4052;DHT22;2040;50.924;11.604;2024-02-21T09:57:58;8.50;99.90
4052;DHT22;2040;50.924;11.604;2024-02-21T10:00:24;8.60;99.90
4052;DHT22;2040;50.924;11.604;2024-02-21T10:02:49;8.70;99.90
4052;DHT22;2040;50.924;11.604;2024-02-21T10:05:15;8.90;99.90
4052;DHT22;2040;50.924;11.604;2024-02-21T10:07:41;9.00;99.90
4052;DHT22;2040;50.924;11.604;2024-02-21T10:10:07;9.10;99.90
4052;DHT22;2040;50.924;11.604;2024-02-21T10:12:33;9.30;99.90
4052;DHT22;2040;50.924;11.604;2024-02-21T10:15:05;9.30;99.90
4052;DHT22;2040;50.924;11.604;2024-02-21T10:17:35;9.30;99.90
4052;DHT22;2040;50.924;11.604;2024-02-21T10:20:11;9.30;99.90
4052;DHT22;2040;50.924;11.604;2024-02-21T10:22:38;9.20;99.90
4052;DHT22;2040;50.924;11.604;2024-02-21T10:25:12;9.30;99.90
4052;DHT22;2040;50.924;11.604;2024-02-21T10:27:39;9.50;99.90
4052;DHT22;2040;50.924;11.604;2024-02-21T10:30:12;9.50;99.90
4052;DHT22;2040;50.924;11.604;2024-02-21T10:32:49;9.60;99.90
4052;DHT22;2040;50.924;11.604;2024-02-21T10:35:14;9.60;99.90
4052;DHT22;2040;50.924;11.604;2024-02-21T10:37:50;9.50;99.90
4052;DHT22;2040;50.924;11.604;2024-02-21T10:40:21;9.40;99.90
4052;DHT22;2040;50.924;11.604;2024-02-21T10:42:48;9.40;99.90
4052;DHT22;2040;50.924;11.604;2024-02-21T10:45:15;9.40;99.90
4052;DHT22;2040;50.924;11.604;2024-02-21T10:47:44;9.40;99.90
4052;DHT22;2040;50.924;11.604;2024-02-21T10:50:15;9.50;99.90
4052;DHT22;2040;50.924;11.604;2024-02-21T10:52:58;9.50;99.90
4052;DHT22;2040;50.924;11.604;2024-02-21T10:55:35;9.30;99.90
4052;DHT22;2040;50.924;11.604;2024-02-21T10:58:02;9.30;99.90
4052;DHT22;2040;50.924;11.604;2024-02-21T11:00:29;9.40;99.90
4052;DHT22;2040;50.924;11.604;2024-02-21T11:02:57;9.40;99.90
4052;DHT22;2040;50.924;11.604;2024-02-21T11:05:24;9.40;99.90
4052;DHT22;2040;50.924;11.604;2024-02-21T11:07:50;9.40;99.90
4052;DHT22;2040;50.924;11.604;2024-02-21T11:10:26;9.40;99.90
4052;DHT22;2040;50.924;11.604;2024-02-21T11:13:10;9.50;99.90
4052;DHT22;2040;50.924;11.604;2024-02-21T11:15:36;9.60;99.90
4052;DHT22;2040;50.924;11.604;2024-02-21T11:18:02;9.90;99.90
4052;DHT22;2040;50.924;11.604;2024-02-21T11:20:37;10.10;99.90
4052;DHT22;2040;50.924;11.604;2024-02-21T11:23:03;10.20;99.90
4052;DHT22;2040;50.924;11.604;2024-02-21T11:25:29;10.20;99.90
4052;DHT22;2040;50.924;11.604;2024-02-21T11:28:03;10.30;99.90
4052;DHT22;2040;50.924;11.604;2024-02-21T11:30:36;10.00;99.90
4052;DHT22;2040;50.924;11.604;2024-02-21T11:33:05;9.80;99.90
4052;DHT22;2040;50.924;11.604;2024-02-21T11:35:35;9.80;99.90
4052;DHT22;2040;50.924;11.604;2024-02-21T11:38:08;9.80;99.90
4052;DHT22;2040;50.924;11.604;2024-02-21T11:40:34;9.90;99.90
4052;DHT22;2040;50.924;11.604;2024-02-21T11:43:00;9.90;99.90
4052;DHT22;2040;50.924;11.604;2024-02-21T11:45:26;10.10;99.90
4052;DHT22;2040;50.924;11.604;2024-02-21T11:47:52;10.40;99.90
4052;DHT22;2040;50.924;11.604;2024-02-21T11:50:18;10.60;99.90
4052;DHT22;2040;50.924;11.604;2024-02-21T11:52:44;10.90;99.90
4052;DHT22;2040;50.924;11.604;2024-02-21T11:55:11;11.20;99.90
4052;DHT22;2040;50.924;11.604;2024-02-21T11:57:37;11.30;99.90
4052;DHT22;2040;50.924;11.604;2024-02-21T12:00:18;11.40;99.90
4052;DHT22;2040;50.924;11.604;2024-02-21T12:02:45;11.30;99.90
4052;DHT22;2040;50.924;11.604;2024-02-21T12:05:11;11.40;99.90
4052;DHT22;2040;50.924;11.604;2024-02-21T12:07:37;11.30;99.90
4052;DHT22;2040;50.924;11.604;2024-02-21T12:10:10;11.30;99.90
4052;DHT22;2040;50.924;11.604;2024-02-21T12:12:39;11.30;99.90
4052;DHT22;2040;50.924;11.604;2024-02-21T12:15:05;11.30;99.90
4052;DHT22;2040;50.924;11.604;2024-02-21T12:17:35;11.40;99.90
4052;DHT22;2040;50.924;11.604;2024-02-21T12:20:05;11.50;99.90
4052;DHT22;2040;50.924;11.604;2024-02-21T12:22:31;11.60;99.90
4052;DHT22;2040;50.924;11.604;2024-02-21T12:24:58;11.50;99.90
4052;DHT22;2040;50.924;11.604;2024-02-21T12:27:24;11.50;99.90
4052;DHT22;2040;50.924;11.604;2024-02-21T12:29:50;11.60;99.90
4052;DHT22;2040;50.924;11.604;2024-02-21T12:32:16;11.50;99.90
4052;DHT22;2040;50.924;11.604;2024-02-21T12:34:41;11.60;99.90
4052;DHT22;2040;50.924;11.604;2024-02-21T12:37:07;11.90;99.90
4052;DHT22;2040;50.924;11.604;2024-02-21T12:39:32;11.90;99.90
4052;DHT22;2040;50.924;11.604;2024-02-21T12:41:58;12.00;99.90
4052;DHT22;2040;50.924;11.604;2024-02-21T12:44:24;12.10;99.90
4052;DHT22;2040;50.924;11.604;2024-02-21T12:46:49;12.20;99.90
4052;DHT22;2040;50.924;11.604;2024-02-21T12:49:19;12.30;99.90
4052;DHT22;2040;50.924;11.604;2024-02-21T12:51:44;12.30;99.90
4052;DHT22;2040;50.924;11.604;2024-02-21T12:54:12;12.30;99.90
4052;DHT22;2040;50.924;11.604;2024-02-21T12:56:38;12.30;99.90
4052;DHT22;2040;50.924;11.604;2024-02-21T12:59:05;12.40;99.90
4052;DHT22;2040;50.924;11.604;2024-02-21T13:01:30;12.40;99.90
4052;DHT22;2040;50.924;11.604;2024-02-21T13:03:56;12.20;99.90
4052;DHT22;2040;50.924;11.604;2024-02-21T13:06:23;12.30;99.90
4052;DHT22;2040;50.924;11.604;2024-02-21T13:08:49;12.30;99.90
4052;DHT22;2040;50.924;11.604;2024-02-21T13:11:16;12.30;99.90
4052;DHT22;2040;50.924;11.604;2024-02-21T13:13:42;12.40;99.90
4052;DHT22;2040;50.924;11.604;2024-02-21T13:16:07;12.40;99.90
4052;DHT22;2040;50.924;11.604;2024-02-21T13:18:35;12.50;99.90
4052;DHT22;2040;50.924;11.604;2024-02-21T13:21:00;12.50;99.90
4052;DHT22;2040;50.924;11.604;2024-02-21T13:23:26;12.40;99.90
4052;DHT22;2040;50.924;11.604;2024-02-21T13:25:51;12.40;99.90
4052;DHT22;2040;50.924;11.604;2024-02-21T13:28:17;12.40;99.90
4052;DHT22;2040;50.924;11.604;2024-02-21T13:30:43;12.20;99.90
4052;DHT22;2040;50.924;11.604;2024-02-21T13:33:08;12.00;99.90
4052;DHT22;2040;50.924;11.604;2024-02-21T13:35:35;11.90;99.90
4052;DHT22;2040;50.924;11.604;2024-02-21T13:38:02;11.80;99.90
4052;DHT22;2040;50.924;11.604;2024-02-21T13:40:28;11.90;99.90
4052;DHT22;2040;50.924;11.604;2024-02-21T13:42:53;11.90;99.90
4052;DHT22;2040;50.924;11.604;2024-02-21T13:45:19;11.90;99.90
4052;DHT22;2040;50.924;11.604;2024-02-21T13:47:45;11.70;99.90
4052;DHT22;2040;50.924;11.604;2024-02-21T13:50:10;11.70;99.90
4052;DHT22;2040;50.924;11.604;2024-02-21T13:52:43;11.70;99.90
4052;DHT22;2040;50.924;11.604;2024-02-21T13:55:08;11.70;99.90
4052;DHT22;2040;50.924;11.604;2024-02-21T13:57:38;11.70;99.90
4052;DHT22;2040;50.924;11.604;2024-02-21T14:00:04;11.70;99.90
4052;DHT22;2040;50.924;11.604;2024-02-21T14:02:30;11.50;99.90
4052;DHT22;2040;50.924;11.604;2024-02-21T14:04:56;11.50;99.90
4052;DHT22;2040;50.924;11.604;2024-02-21T14:07:21;11.40;99.90
4052;DHT22;2040;50.924;11.604;2024-02-21T14:09:47;11.30;99.90
4052;DHT22;2040;50.924;11.604;2024-02-21T14:12:13;11.30;99.90
4052;DHT22;2040;50.924;11.604;2024-02-21T14:14:38;11.30;99.90
4052;DHT22;2040;50.924;11.604;2024-02-21T14:17:04;11.30;99.90
4052;DHT22;2040;50.924;11.604;2024-02-21T14:19:30;11.40;99.90
4052;DHT22;2040;50.924;11.604;2024-02-21T14:21:56;11.30;99.90
4052;DHT22;2040;50.924;11.604;2024-02-21T14:24:22;11.40;99.90
4052;DHT22;2040;50.924;11.604;2024-02-21T14:26:48;11.40;99.90
4052;DHT22;2040;50.924;11.604;2024-02-21T14:29:14;11.40;99.90
4052;DHT22;2040;50.924;11.604;2024-02-21T14:31:39;11.30;99.90
4052;DHT22;2040;50.924;11.604;2024-02-21T14:34:05;11.30;99.90
4052;DHT22;2040;50.924;11.604;2024-02-21T14:36:33;11.20;99.90
4052;DHT22;2040;50.924;11.604;2024-02-21T14:38:58;11.00;99.90
4052;DHT22;2040;50.924;11.604;2024-02-21T14:41:24;10.90;99.90
4052;DHT22;2040;50.924;11.604;2024-02-21T14:43:50;10.80;99.90
4052;DHT22;2040;50.924;11.604;2024-02-21T14:46:15;10.70;99.90
4052;DHT22;2040;50.924;11.604;2024-02-21T14:48:41;10.60;99.90
4052;DHT22;2040;50.924;11.604;2024-02-21T14:51:06;10.50;99.90
4052;DHT22;2040;50.924;11.604;2024-02-21T14:53:32;10.50;99.90
4052;DHT22;2040;50.924;11.604;2024-02-21T14:55:58;10.40;99.90
4052;DHT22;2040;50.924;11.604;2024-02-21T14:58:23;10.30;99.90
4052;DHT22;2040;50.924;11.604;2024-02-21T15:00:49;10.30;99.90
4052;DHT22;2040;50.924;11.604;2024-02-21T15:03:16;10.30;99.90
4052;DHT22;2040;50.924;11.604;2024-02-21T15:05:45;10.20;99.90
4052;DHT22;2040;50.924;11.604;2024-02-21T15:08:11;10.20;99.90
4052;DHT22;2040;50.924;11.604;2024-02-21T15:10:37;10.20;99.90
4052;DHT22;2040;50.924;11.604;2024-02-21T15:13:03;10.20;99.90
4052;DHT22;2040;50.924;11.604;2024-02-21T15:15:29;10.20;99.90
4052;DHT22;2040;50.924;11.604;2024-02-21T15:17:54;10.10;99.90
4052;DHT22;2040;50.924;11.604;2024-02-21T15:20:22;10.10;99.90
4052;DHT22;2040;50.924;11.604;2024-02-21T15:22:48;10.00;99.90
4052;DHT22;2040;50.924;11.604;2024-02-21T15:25:14;10.00;99.90
4052;DHT22;2040;50.924;11.604;2024-02-21T15:27:44;10.00;99.90
4052;DHT22;2040;50.924;11.604;2024-02-21T15:30:10;9.90;99.90
4052;DHT22;2040;50.924;11.604;2024-02-21T15:32:36;9.90;99.90
4052;DHT22;2040;50.924;11.604;2024-02-21T15:35:06;9.80;99.90
4052;DHT22;2040;50.924;11.604;2024-02-21T15:37:33;9.70;99.90
4052;DHT22;2040;50.924;11.604;2024-02-21T15:39:58;9.70;99.90
4052;DHT22;2040;50.924;11.604;2024-02-21T15:42:24;9.70;99.90
4052;DHT22;2040;50.924;11.604;2024-02-21T15:44:50;9.70;99.90
4052;DHT22;2040;50.924;11.604;2024-02-21T15:47:16;9.60;99.90
4052;DHT22;2040;50.924;11.604;2024-02-21T15:49:44;9.60;99.90
4052;DHT22;2040;50.924;11.604;2024-02-21T15:52:09;9.50;99.90
4052;DHT22;2040;50.924;11.604;2024-02-21T15:54:36;9.50;99.90
4052;DHT22;2040;50.924;11.604;2024-02-21T15:57:02;9.40;99.90